Time;durP1;ratioP1;P1;durP2;ratioP2;P2;SDS_P1;SDS_P2;PMS_P1;PMS_P2;Temp;Humidity;BMP_temperature;BMP_pressure;BME280_temperature;BME280_humidity;BME280_pressure;Samples;Min_cycle;Max_cycle;Signal;HPM_P1;HPM_P2
2021/12/27 00:01:07;;;;;;;25.00;13.10;;;;;;;0.56;100.00;100257.34;5051849;28;20455;-56
2021/12/27 00:03:37;;;;;;;23.48;12.25;;;;;;;0.65;100.00;100259.63;5050280;28;20065;-55
2021/12/27 00:06:09;;;;;;;23.83;13.02;;;;;;;0.63;100.00;100257.09;5047322;28;20057;-54
2021/12/27 00:08:39;;;;;;;25.08;12.30;;;;;;;0.65;100.00;100252.69;5049459;28;20063;-55
2021/12/27 00:11:08;;;;;;;23.95;12.98;;;;;;;0.61;100.00;100248.53;5051897;28;20400;-54
2021/12/27 00:13:36;;;;;;;21.27;12.98;;;;;;;0.63;100.00;100240.75;5051484;28;20512;-56
2021/12/27 00:16:06;;;;;;;23.60;12.77;;;;;;;0.65;100.00;100236.34;5047508;28;20057;-56
2021/12/27 00:18:34;;;;;;;23.60;12.77;;;;;;;0.59;100.00;100229.63;5048483;28;20048;-53
2021/12/27 00:21:02;;;;;;;24.38;12.90;;;;;;;0.61;100.00;100232.16;5051546;28;20057;-52
2021/12/27 00:23:32;;;;;;;23.25;12.90;;;;;;;0.61;100.00;100227.00;5049267;28;20577;-55
2021/12/27 00:26:00;;;;;;;22.38;13.13;;;;;;;0.63;100.00;100227.78;5048880;28;20095;-52
2021/12/27 00:28:30;;;;;;;22.80;12.70;;;;;;;0.64;100.00;100224.28;5050863;28;20052;-54
2021/12/27 00:30:58;;;;;;;23.95;12.70;;;;;;;0.63;100.00;100225.22;5048148;28;20053;-54
2021/12/27 00:33:26;;;;;;;22.25;13.13;;;;;;;0.63;100.00;100227.78;5049948;28;20491;-52
2021/12/27 00:35:54;;;;;;;22.13;12.32;;;;;;;0.73;100.00;100223.16;5048801;28;20048;-54
2021/12/27 00:38:22;;;;;;;23.58;13.20;;;;;;;0.67;100.00;100224.22;5048930;28;20041;-53
2021/12/27 00:40:52;;;;;;;23.30;12.68;;;;;;;0.72;100.00;100217.09;5054868;28;20041;-53
2021/12/27 00:43:20;;;;;;;24.90;13.10;;;;;;;0.73;100.00;100210.19;5055716;28;20057;-53
2021/12/27 00:45:48;;;;;;;21.02;12.40;;;;;;;0.71;100.00;100206.81;5055692;28;20053;-53
2021/12/27 00:48:17;;;;;;;24.20;13.30;;;;;;;0.65;100.00;100210.47;5052454;28;20087;-52
2021/12/27 00:50:46;;;;;;;22.02;11.95;;;;;;;0.66;100.00;100212.16;5052139;28;20053;-52
2021/12/27 00:53:14;;;;;;;21.73;12.75;;;;;;;0.71;100.00;100207.66;5053960;28;20090;-53
2021/12/27 00:55:42;;;;;;;25.75;13.20;;;;;;;0.71;100.00;100205.09;5055017;28;20049;-52
2021/12/27 00:58:12;;;;;;;21.33;12.07;;;;;;;0.70;100.00;100200.81;5055193;28;20448;-54
2021/12/27 01:00:40;;;;;;;25.80;13.75;;;;;;;0.71;100.00;100202.50;5055374;28;20053;-50
2021/12/27 01:03:09;;;;;;;21.45;11.77;;;;;;;0.71;100.00;100197.31;5053344;28;20048;-54
2021/12/27 01:05:38;;;;;;;23.67;13.32;;;;;;;0.72;100.00;100195.56;5051150;28;20048;-51
2021/12/27 01:08:06;;;;;;;22.70;12.25;;;;;;;0.76;100.00;100195.38;5055071;28;20056;-54
2021/12/27 01:13:36;;;;;;;21.33;12.77;;;;;;;0.79;100.00;100195.31;5055180;28;20079;-55
2021/12/27 01:16:12;;;;;;;20.83;11.75;;;;;;;0.81;100.00;100196.09;5055100;28;20056;-53
2021/12/27 01:18:45;;;;;;;24.40;13.00;;;;;;;0.86;100.00;100192.50;5054796;28;20052;-52
2021/12/27 01:21:14;;;;;;;21.02;12.52;;;;;;;0.87;100.00;100191.59;5054923;28;20047;-54
2021/12/27 01:23:43;;;;;;;21.50;12.02;;;;;;;0.81;100.00;100192.66;5054798;28;20431;-53
2021/12/27 01:26:11;;;;;;;25.10;12.60;;;;;;;0.85;100.00;100199.41;5055087;28;20053;-52
2021/12/27 01:28:42;;;;;;;21.83;12.52;;;;;;;0.91;100.00;100195.75;5054752;28;20072;-54
2021/12/27 01:31:11;;;;;;;22.20;12.63;;;;;;;0.80;100.00;100191.78;5054852;28;20053;-54
2021/12/27 01:33:40;;;;;;;22.55;13.10;;;;;;;0.84;100.00;100187.38;5054829;28;20055;-53
2021/12/27 01:36:09;;;;;;;23.17;12.77;;;;;;;0.87;100.00;100181.25;5054659;28;20055;-55
2021/12/27 01:38:38;;;;;;;25.17;12.90;;;;;;;0.84;100.00;100183.03;5054045;28;20041;-53
2021/12/27 01:41:08;;;;;;;22.23;12.25;;;;;;;0.84;100.00;100180.44;5054363;28;20045;-50
2021/12/27 01:43:38;;;;;;;21.73;11.63;;;;;;;0.79;100.00;100179.78;5054470;28;20373;-54
2021/12/27 01:46:10;;;;;;;20.38;12.32;;;;;;;0.83;100.00;100178.75;5054515;28;20044;-53
2021/12/27 01:48:42;;;;;;;23.70;12.73;;;;;;;0.84;100.00;100171.84;5054043;28;20045;-54
2021/12/27 01:51:12;;;;;;;23.13;12.93;;;;;;;0.91;100.00;100172.47;5054348;28;20492;-52
2021/12/27 01:53:43;;;;;;;23.63;12.55;;;;;;;0.92;100.00;100168.97;5044175;28;20072;-54
2021/12/27 01:56:13;;;;;;;24.60;12.15;;;;;;;0.91;100.00;100180.22;5052126;28;20049;-53
2021/12/27 01:58:42;;;;;;;26.35;12.93;;;;;;;0.92;100.00;100181.94;5048334;28;20049;-54
2021/12/27 02:01:13;;;;;;;19.50;11.40;;;;;;;0.95;100.00;100179.22;5043392;28;20091;-53
2021/12/27 02:03:43;;;;;;;23.77;11.60;;;;;;;0.94;100.00;100172.34;5045221;28;20058;-54
2021/12/27 02:06:12;;;;;;;22.15;12.68;;;;;;;0.97;100.00;100161.91;5034135;28;20045;-52
2021/12/27 02:08:42;;;;;;;24.13;12.88;;;;;;;0.96;100.00;100167.97;5050357;28;20049;-54
2021/12/27 02:11:12;;;;;;;21.33;12.43;;;;;;;0.97;100.00;100164.50;5051649;28;20040;-52
2021/12/27 02:13:43;;;;;;;21.77;12.30;;;;;;;0.95;100.00;100159.34;5051651;28;20047;-54
2021/12/27 02:16:15;;;;;;;20.92;11.93;;;;;;;0.95;100.00;100159.34;5054655;28;20048;-54
2021/12/27 02:18:44;;;;;;;21.48;12.68;;;;;;;0.92;100.00;100167.22;5055571;28;20492;-53
2021/12/27 02:21:14;;;;;;;22.40;12.25;;;;;;;0.92;100.00;100161.22;5048446;28;20127;-55
2021/12/27 02:23:43;;;;;;;21.40;12.32;;;;;;;0.98;100.00;100166.16;5036045;28;20053;-54
2021/12/27 02:26:11;;;;;;;22.58;12.23;;;;;;;0.97;100.00;100160.16;5057753;28;20053;-51
2021/12/27 02:28:40;;;;;;;23.10;12.73;;;;;;;0.97;100.00;100154.13;5050020;28;20049;-52
2021/12/27 02:31:10;;;;;;;24.23;11.95;;;;;;;1.01;100.00;100150.53;5046699;28;20132;-53
2021/12/27 02:33:39;;;;;;;22.60;12.52;;;;;;;0.96;100.00;100152.44;5050700;28;20092;-54
2021/12/27 02:36:09;;;;;;;23.02;12.77;;;;;;;0.93;100.00;100152.56;5047887;28;20052;-53
2021/12/27 02:38:40;;;;;;;23.63;12.30;;;;;;;0.95;100.00;100151.56;5048021;28;20071;-54
2021/12/27 02:41:10;;;;;;;21.53;11.20;;;;;;;0.99;100.00;100155.75;5045185;28;20427;-54
2021/12/27 02:43:42;;;;;;;22.80;12.15;;;;;;;1.02;100.00;100152.19;5046070;28;20470;-54
2021/12/27 02:46:13;;;;;;;20.45;12.10;;;;;;;1.03;100.00;100143.53;5036403;28;20103;-55
2021/12/27 02:48:46;;;;;;;22.27;11.88;;;;;;;1.06;100.00;100135.63;5048726;28;20083;-55
2021/12/27 02:51:15;;;;;;;;;;;;;;;1.06;100.00;100135.63;5046985;28;20161;-55
2021/12/27 02:53:45;;;;;;;22.00;12.05;;;;;;;1.07;100.00;100134.75;5041882;28;19921;-53
2021/12/27 02:56:13;;;;;;;20.52;11.15;;;;;;;1.09;100.00;100132.97;5047782;28;20503;-53
2021/12/27 02:58:41;;;;;;;22.08;13.00;;;;;;;1.12;100.00;100132.84;5046079;28;20464;-54
2021/12/27 03:01:12;;;;;;;21.55;12.30;;;;;;;1.12;100.00;100135.44;5046696;28;20067;-53
2021/12/27 03:03:41;;;;;;;22.90;12.38;;;;;;;1.13;100.00;100131.94;5046100;28;20038;-54
2021/12/27 03:06:09;;;;;;;22.38;12.80;;;;;;;1.11;100.00;100120.78;5047447;28;20091;-54
2021/12/27 03:08:39;;;;;;;21.08;11.77;;;;;;;1.14;100.00;100122.41;5042978;28;20052;-53
2021/12/27 03:11:10;;;;;;;23.67;12.48;;;;;;;1.15;100.00;100134.47;5050707;28;20177;-52
2021/12/27 03:13:40;;;;;;;22.80;12.00;;;;;;;1.10;100.00;100137.22;5050310;28;20095;-53
2021/12/27 03:16:10;;;;;;;19.25;10.65;;;;;;;1.15;100.00;100126.69;5050784;28;20045;-52
2021/12/27 03:18:41;;;;;;;21.52;11.90;;;;;;;1.17;100.00;100130.94;5049163;28;20075;-53
2021/12/27 03:21:10;;;;;;;20.90;11.48;;;;;;;1.20;100.00;100123.94;5043644;28;20499;-52
2021/12/27 03:23:40;;;;;;;20.00;11.07;;;;;;;1.22;100.00;100120.38;5045162;28;20110;-53
2021/12/27 03:26:10;;;;;;;23.10;11.73;;;;;;;1.23;100.00;100123.81;5049395;28;20090;-54
2021/12/27 03:28:40;;;;;;;22.63;12.05;;;;;;;1.28;100.00;100121.88;5050029;28;20373;-54
2021/12/27 03:31:08;;;;;;;20.30;11.80;;;;;;;1.31;100.00;100114.00;5041329;28;20037;-53
2021/12/27 03:33:37;;;;;;;22.33;11.35;;;;;;;1.30;100.00;100109.72;5047116;28;20052;-54
2021/12/27 03:36:08;;;;;;;20.23;11.52;;;;;;;1.30;100.00;100107.97;5048549;28;20048;-53
2021/12/27 03:38:38;;;;;;;21.52;11.68;;;;;;;1.34;100.00;100103.53;5050132;28;20049;-53
2021/12/27 03:41:13;;;;;;;20.88;11.55;;;;;;;1.28;100.00;100102.03;5034578;28;20041;-53
2021/12/27 03:43:42;;;;;;;20.38;12.13;;;;;;;1.32;100.00;100105.31;5044808;28;20361;-53
2021/12/27 03:46:10;;;;;;;20.40;11.63;;;;;;;1.35;100.00;100103.47;5029335;28;20049;-53
2021/12/27 03:48:39;;;;;;;22.83;12.43;;;;;;;1.37;100.00;100102.56;5032045;28;20049;-52
2021/12/27 03:51:07;;;;;;;20.90;10.82;;;;;;;1.42;100.00;100096.31;5031850;28;20045;-53
2021/12/27 03:53:35;;;;;;;22.17;11.98;;;;;;;1.40;100.00;100108.47;5028736;28;20065;-55
2021/12/27 03:56:05;;;;;;;22.27;11.70;;;;;;;1.38;100.00;100110.28;5031025;28;20138;-55
2021/12/27 03:58:46;;;;;;;22.85;11.23;;;;;;;1.35;100.00;100103.47;5032041;28;20045;-55
2021/12/27 04:01:16;;;;;;;23.17;12.15;;;;;;;1.39;100.00;100103.34;5029194;28;20049;-54
2021/12/27 04:03:48;;;;;;;24.17;11.75;;;;;;;1.43;100.00;100098.00;5030228;28;20400;-55
2021/12/27 04:06:18;;;;;;;23.83;12.70;;;;;;;1.51;100.00;100090.75;5032192;28;20111;-55
2021/12/27 04:08:47;;;;;;;20.67;11.55;;;;;;;1.52;100.00;100087.25;5032095;28;20049;-55
2021/12/27 04:11:15;;;;;;;24.08;11.52;;;;;;;1.54;100.00;100083.75;5031660;28;20296;-53
2021/12/27 04:13:45;;;;;;;24.20;12.43;;;;;;;1.55;100.00;100085.44;5035294;28;20049;-54
2021/12/27 04:16:13;;;;;;;22.23;11.93;;;;;;;1.54;100.00;100081.16;5033166;28;20046;-52
2021/12/27 04:18:41;;;;;;;21.90;12.43;;;;;;;1.55;100.00;100075.09;5034609;28;20060;-55
2021/12/27 04:21:09;;;;;;;24.15;12.35;;;;;;;1.59;100.00;100071.47;5036061;28;20045;-53
2021/12/27 04:23:37;;;;;;;26.50;13.15;;;;;;;1.61;100.00;100069.63;5036059;28;20049;-55
2021/12/27 04:26:06;;;;;;;25.85;12.43;;;;;;;1.64;100.00;100065.19;5036101;28;20052;-53
2021/12/27 04:28:34;;;;;;;22.92;12.38;;;;;;;1.68;100.00;100068.50;5034970;28;20058;-53
2021/12/27 04:31:04;;;;;;;25.45;13.82;;;;;;;1.75;100.00;100061.31;5035993;28;20376;-51
2021/12/27 04:33:32;;;;;;;23.05;14.27;;;;;;;1.76;100.00;100056.06;5036061;28;20049;-51
2021/12/27 04:36:00;;;;;;;27.92;13.82;;;;;;;1.76;100.00;100057.81;5035864;28;20053;-53
2021/12/27 04:38:28;;;;;;;28.38;13.30;;;;;;;1.71;100.00;100055.41;5032675;28;20077;-53
2021/12/27 04:40:56;;;;;;;26.58;13.20;;;;;;;1.76;100.00;100053.47;5033591;28;20439;-53
2021/12/27 04:43:25;;;;;;;27.38;13.48;;;;;;;1.78;100.00;100051.66;5036187;28;20511;-53
2021/12/27 04:45:54;;;;;;;24.00;12.60;;;;;;;1.76;100.00;100050.88;5034186;28;20538;-53
2021/12/27 04:48:25;;;;;;;29.20;14.02;;;;;;;1.76;100.00;100050.88;5033155;28;20038;-54
2021/12/27 04:50:53;;;;;;;25.80;13.52;;;;;;;1.78;100.00;100049.06;5034445;28;20050;-49
2021/12/27 04:53:22;;;;;;;25.17;14.57;;;;;;;1.77;100.00;100050.00;5031524;28;20080;-51
2021/12/27 04:55:50;;;;;;;25.20;14.40;;;;;;;1.76;100.00;100047.44;5032108;28;20058;-52
2021/12/27 04:58:21;;;;;;;27.63;14.02;;;;;;;1.76;100.00;100053.47;5034023;28;20419;-52
2021/12/27 05:00:51;;;;;;;26.95;13.98;;;;;;;1.77;100.00;100055.19;5032445;28;20120;-53
2021/12/27 05:03:20;;;;;;;28.38;14.00;;;;;;;1.79;100.00;100053.34;5034580;28;20045;-52
2021/12/27 05:05:49;;;;;;;24.08;14.18;;;;;;;1.81;100.00;100056.72;5035359;28;20045;-53
2021/12/27 05:08:17;;;;;;;24.10;13.70;;;;;;;1.85;100.00;100042.72;5035208;28;20132;-53
2021/12/27 05:10:47;;;;;;;25.45;13.57;;;;;;;1.85;100.00;100044.47;5035230;28;20061;-52
2021/12/27 05:13:17;;;;;;;21.58;12.68;;;;;;;1.86;100.00;100041.81;5035128;28;20500;-51
2021/12/27 05:15:45;;;;;;;25.58;13.68;;;;;;;1.87;100.00;100045.25;5032556;28;20388;-52
2021/12/27 05:18:13;;;;;;;20.60;11.68;;;;;;;1.90;100.00;100044.28;5032534;28;20103;-54
2021/12/27 05:20:41;;;;;;;20.75;12.52;;;;;;;1.92;100.00;100039.88;5034140;28;20053;-53
2021/12/27 05:23:11;;;;;;;26.05;13.82;;;;;;;1.93;100.00;100041.56;5034722;28;20051;-54
2021/12/27 05:25:39;;;;;;;22.38;12.77;;;;;;;2.00;100.00;100030.88;5034722;28;20057;-52
2021/12/27 05:28:09;;;;;;;22.23;13.18;;;;;;;1.99;100.00;100028.31;5034764;28;20057;-52
2021/12/27 05:30:37;;;;;;;23.92;12.43;;;;;;;2.00;100.00;100027.41;5034347;28;20087;-52
2021/12/27 05:33:06;;;;;;;24.17;13.38;;;;;;;2.03;100.00;100024.69;5032496;28;20054;-53
2021/12/27 05:35:34;;;;;;;22.48;12.20;;;;;;;2.01;100.00;100023.91;5032243;28;20388;-52
2021/12/27 05:38:02;;;;;;;21.27;12.00;;;;;;;2.02;100.00;100023.84;5034713;28;20042;-53
2021/12/27 05:40:31;;;;;;;25.50;13.45;;;;;;;2.03;100.00;100029.88;5034720;28;20049;-50
2021/12/27 05:42:59;;;;;;;23.60;12.52;;;;;;;2.03;100.00;100027.28;5034474;28;20049;-50
2021/12/27 05:45:28;;;;;;;23.10;12.77;;;;;;;2.04;100.00;100013.41;5034597;28;20480;-50
2021/12/27 05:47:56;;;;;;;25.55;13.65;;;;;;;2.06;100.00;100014.19;5034351;28;20057;-54
2021/12/27 05:50:24;;;;;;;24.90;13.40;;;;;;;2.11;100.00;100020.00;5034541;28;20053;-53
2021/12/27 05:52:53;;;;;;;21.92;12.63;;;;;;;2.11;100.00;100021.78;5034455;28;20439;-53
2021/12/27 05:55:21;;;;;;;24.52;13.93;;;;;;;2.11;100.00;100024.38;5044999;28;20120;-52
2021/12/27 05:57:51;;;;;;;26.75;13.98;;;;;;;2.12;100.00;100020.88;5043861;28;20761;-53
2021/12/27 06:00:20;;;;;;;23.92;13.48;;;;;;;2.13;100.00;100014.78;5044151;28;20415;-53
2021/12/27 06:02:51;;;;;;;24.00;13.93;;;;;;;2.15;100.00;100012.94;5046355;28;20112;-50
2021/12/27 06:05:19;;;;;;;22.33;12.85;;;;;;;2.15;100.00;100006.00;5049215;28;20083;-51
2021/12/27 06:07:48;;;;;;;23.70;13.10;;;;;;;2.20;100.00;100011.00;5050580;28;20056;-54
2021/12/27 06:10:16;;;;;;;21.80;12.93;;;;;;;2.18;100.00;100000.69;5048264;28;20044;-52
2021/12/27 06:12:45;;;;;;;25.27;12.82;;;;;;;2.21;100.00;99994.53;5041869;28;20045;-53
2021/12/27 06:15:15;;;;;;;22.38;13.80;;;;;;;2.24;100.00;99998.75;5047409;28;20080;-51
2021/12/27 06:17:43;;;;;;;24.15;12.57;;;;;;;2.29;100.00;100001.97;5040619;28;20413;-52
2021/12/27 06:20:14;;;;;;;25.02;14.05;;;;;;;2.28;100.00;100003.72;5049075;28;20529;-54
2021/12/27 06:22:45;;;;;;;24.98;13.68;;;;;;;2.28;100.00;100008.91;5056149;28;20427;-53
2021/12/27 06:25:13;;;;;;;24.33;13.60;;;;;;;2.34;100.00;100006.03;5052022;28;20818;-54
2021/12/27 06:27:41;;;;;;;21.52;12.85;;;;;;;2.38;100.00;100005.91;5038548;28;20053;-52
2021/12/27 06:30:11;;;;;;;21.83;12.68;;;;;;;2.41;100.00;100004.00;5039731;28;20076;-54
2021/12/27 06:32:41;;;;;;;23.85;13.05;;;;;;;2.34;100.00;100000.84;5040880;28;20045;-53
2021/12/27 06:35:12;;;;;;;20.83;13.23;;;;;;;2.37;100.00;99999.88;5036046;28;20049;-52
2021/12/27 06:37:41;;;;;;;23.75;13.73;;;;;;;2.41;100.00;99998.81;5045397;28;20049;-53
2021/12/27 06:40:11;;;;;;;21.88;12.95;;;;;;;2.45;100.00;100005.56;5051117;28;20099;-53
2021/12/27 06:42:40;;;;;;;23.10;13.48;;;;;;;2.44;100.00;100005.63;5051397;28;20151;-53
2021/12/27 06:45:08;;;;;;;21.60;11.75;;;;;;;2.46;100.00;100011.59;5050250;28;20099;-53
2021/12/27 06:47:37;;;;;;;23.00;13.02;;;;;;;2.45;100.00;100005.56;5052058;28;20060;-54
2021/12/27 06:50:09;;;;;;;22.33;12.50;;;;;;;2.43;100.00;100009.16;5048583;28;20045;-53
2021/12/27 06:52:37;;;;;;;23.13;12.75;;;;;;;2.43;100.00;100014.34;5051342;28;20045;-53
2021/12/27 06:55:07;;;;;;;23.77;13.52;;;;;;;2.54;100.00;100009.50;5050055;28;20116;-53
2021/12/27 06:57:35;;;;;;;24.42;12.60;;;;;;;2.50;100.00;100006.19;5050107;28;20041;-54
2021/12/27 07:00:06;;;;;;;22.52;13.10;;;;;;;2.51;100.00;100005.28;5051786;28;20045;-50
2021/12/27 07:02:34;;;;;;;26.20;13.02;;;;;;;2.52;100.00;100009.59;5053008;28;20154;-52
2021/12/27 07:05:02;;;;;;;23.95;12.93;;;;;;;2.56;100.00;100010.25;5052830;28;20396;-52
2021/12/27 07:07:32;;;;;;;23.92;13.25;;;;;;;2.64;100.00;100010.75;5053103;28;20110;-52
2021/12/27 07:10:00;;;;;;;24.85;13.55;;;;;;;2.57;100.00;99998.16;5052946;28;20464;-50
2021/12/27 07:12:28;;;;;;;21.85;12.65;;;;;;;2.57;100.00;100006.75;5053027;28;20379;-54
2021/12/27 07:14:56;;;;;;;22.38;13.48;;;;;;;2.56;100.00;100002.47;5052774;28;20053;-53
2021/12/27 07:17:24;;;;;;;25.40;13.57;;;;;;;2.54;100.00;100005.16;5052943;28;20678;-53
2021/12/27 07:19:52;;;;;;;24.45;13.07;;;;;;;2.54;100.00;99999.97;5052859;28;20111;-51
2021/12/27 07:22:20;;;;;;;25.58;13.60;;;;;;;2.53;100.00;99995.66;5052497;28;20033;-53
2021/12/27 07:24:49;;;;;;;22.65;12.38;;;;;;;2.52;100.00;100001.78;5052690;28;20491;-51
2021/12/27 07:27:17;;;;;;;23.25;12.20;;;;;;;2.51;100.00;99997.50;5050316;28;20053;-53
2021/12/27 07:29:46;;;;;;;22.10;12.23;;;;;;;2.51;100.00;100000.09;5050658;28;20041;-52
2021/12/27 07:32:14;;;;;;;23.65;12.57;;;;;;;2.52;100.00;100003.53;5052569;28;20041;-54
2021/12/27 07:34:42;;;;;;;22.85;12.82;;;;;;;2.56;100.00;99999.06;5052768;28;20087;-53
2021/12/27 07:37:10;;;;;;;26.45;13.00;;;;;;;2.56;100.00;100001.66;5050212;28;20044;-52
2021/12/27 07:39:38;;;;;;;20.17;12.68;;;;;;;2.64;100.00;99994.34;5049480;28;20044;-53
2021/12/27 07:42:08;;;;;;;23.38;12.73;;;;;;;2.65;100.00;99996.03;5052184;28;20057;-52
2021/12/27 07:44:37;;;;;;;22.60;11.82;;;;;;;2.64;100.00;99999.53;5052527;28;20643;-52
2021/12/27 07:47:05;;;;;;;22.23;12.60;;;;;;;2.65;100.00;99993.44;5051876;28;20041;-52
2021/12/27 07:49:33;;;;;;;20.63;12.07;;;;;;;2.64;100.00;99995.19;5052265;28;20500;-54
2021/12/27 07:52:02;;;;;;;23.67;12.20;;;;;;;2.69;100.00;99998.41;5051995;28;20048;-52
2021/12/27 07:54:30;;;;;;;19.88;11.75;;;;;;;2.70;100.00;99996.69;5049761;28;20072;-52
2021/12/27 07:56:58;;;;;;;21.42;11.20;;;;;;;2.73;100.00;99993.94;5049312;28;20516;-54
2021/12/27 07:59:28;;;;;;;23.80;13.07;;;;;;;2.73;100.00;99987.88;5051585;28;20135;-54
2021/12/27 08:01:57;;;;;;;22.13;11.38;;;;;;;2.70;100.00;99991.50;5050686;28;20549;-54
2021/12/27 08:04:25;;;;;;;20.08;11.68;;;;;;;2.73;100.00;99991.34;5049266;28;20047;-53
2021/12/27 08:06:54;;;;;;;18.65;10.88;;;;;;;2.74;100.00;99993.03;5051202;28;20056;-54
2021/12/27 08:09:22;;;;;;;20.95;11.43;;;;;;;2.69;100.00;99993.22;5048730;28;20052;-53
2021/12/27 08:11:50;;;;;;;19.95;11.20;;;;;;;2.72;100.00;99986.22;5049715;28;20099;-54
2021/12/27 08:14:18;;;;;;;20.52;11.60;;;;;;;2.73;100.00;99987.88;5051982;28;20037;-54
2021/12/27 08:16:48;;;;;;;21.17;11.68;;;;;;;2.75;100.00;99986.91;5051443;28;20045;-53
2021/12/27 08:19:16;;;;;;;19.83;10.68;;;;;;;2.78;100.00;99970.34;5051872;28;20124;-52
2021/12/27 08:21:44;;;;;;;22.73;11.95;;;;;;;2.82;100.00;99977.94;5051934;28;20115;-53
2021/12/27 08:24:12;;;;;;;23.95;11.95;;;;;;;2.77;100.00;99974.69;5051681;28;20045;-55
2021/12/27 08:26:41;;;;;;;21.90;12.18;;;;;;;2.81;100.00;99973.66;5051946;28;20044;-55
2021/12/27 08:29:11;;;;;;;20.23;11.85;;;;;;;2.91;100.00;99974.06;5051811;28;20045;-55
2021/12/27 08:31:39;;;;;;;19.20;10.77;;;;;;;2.99;100.00;99963.31;5052065;28;20071;-53
2021/12/27 08:34:09;;;;;;;20.77;11.60;;;;;;;2.95;100.00;99969.56;5049668;28;20048;-52
2021/12/27 08:36:37;;;;;;;20.33;11.75;;;;;;;2.96;100.00;99959.09;5048847;28;20048;-53
2021/12/27 08:39:06;;;;;;;22.85;11.90;;;;;;;2.97;100.00;99953.00;5051899;28;20107;-53
2021/12/27 08:41:34;;;;;;;21.45;12.30;;;;;;;2.98;100.00;99951.22;5050595;28;20056;-54
2021/12/27 08:44:05;;;;;;;21.92;12.40;;;;;;;3.04;100.00;99956.97;5051672;28;20052;-53
2021/12/27 08:46:33;;;;;;;22.30;12.93;;;;;;;3.10;100.00;99971.41;5050857;28;20064;-54
2021/12/27 08:49:02;;;;;;;19.80;10.93;;;;;;;3.11;100.00;99964.47;5049348;28;20512;-53
2021/12/27 08:51:32;;;;;;;21.27;11.70;;;;;;;3.11;100.00;99965.31;5049513;28;20053;-51
2021/12/27 08:54:00;;;;;;;20.17;11.43;;;;;;;3.14;100.00;99972.13;5051483;28;20060;-52
2021/12/27 08:56:28;;;;;;;20.48;11.90;;;;;;;3.15;100.00;99972.03;5051657;28;20049;-52
2021/12/27 08:58:57;;;;;;;20.85;12.10;;;;;;;3.20;100.00;99971.81;5052296;28;20563;-52
2021/12/27 09:01:26;;;;;;;20.48;11.52;;;;;;;3.20;100.00;99971.81;5054896;28;20127;-53
2021/12/27 09:03:54;;;;;;;20.90;12.02;;;;;;;3.26;100.00;99975.88;5048799;28;20432;-53
2021/12/27 09:06:23;;;;;;;19.45;10.90;;;;;;;3.27;100.00;99972.34;5052804;28;20130;-51
2021/12/27 09:08:52;;;;;;;21.55;12.05;;;;;;;3.25;100.00;99963.81;5055110;28;20111;-53
2021/12/27 09:11:20;;;;;;;20.80;11.90;;;;;;;3.31;100.00;99969.56;5055446;28;20059;-54
2021/12/27 09:13:48;;;;;;;17.38;9.95;;;;;;;3.33;100.00;99962.50;5055035;28;20045;-54
2021/12/27 09:16:36;;;;;;;22.17;12.63;;;;;;;3.31;100.00;99966.97;5053795;28;20088;-49
2021/12/27 09:19:05;;;;;;;20.50;11.30;;;;;;;3.33;100.00;99975.50;5054911;28;20053;-53
2021/12/27 09:21:33;;;;;;;19.67;10.68;;;;;;;3.36;100.00;99972.75;5052125;28;20538;-54
2021/12/27 09:24:03;;;;;;;21.80;11.60;;;;;;;3.43;100.00;99980.25;5051153;28;20114;-52
2021/12/27 09:26:31;;;;;;;20.02;10.35;;;;;;;3.45;100.00;99976.66;5054966;28;20427;-55
2021/12/27 09:28:59;;;;;;;18.95;10.77;;;;;;;3.50;100.00;99976.44;5054264;28;20052;-52
2021/12/27 09:31:28;;;;;;;17.73;10.05;;;;;;;3.51;100.00;99976.34;5052823;28;20091;-53
2021/12/27 09:33:56;;;;;;;17.42;10.02;;;;;;;3.52;100.00;99970.25;5051366;28;20492;-53
2021/12/27 09:36:24;;;;;;;19.83;11.18;;;;;;;3.55;100.00;99975.28;5053386;28;20056;-52
2021/12/27 09:38:52;;;;;;;18.85;10.77;;;;;;;3.63;100.00;99977.50;5054493;28;20381;-53
2021/12/27 09:41:26;;;;;;;18.65;10.60;;;;;;;3.62;100.00;99972.38;5054608;28;20124;-54
2021/12/27 09:43:55;;;;;;;17.33;10.80;;;;;;;3.68;100.00;99972.06;5054423;28;20099;-54
2021/12/27 09:46:24;;;;;;;19.45;10.77;;;;;;;3.70;100.00;99965.03;5054594;28;20950;-55
2021/12/27 09:48:54;;;;;;;17.73;10.20;;;;;;;3.75;100.00;99951.78;5054280;28;20361;-53
2021/12/27 09:51:23;;;;;;;18.15;10.70;;;;;;;3.72;100.00;99958.00;5054310;28;20048;-54
2021/12/27 09:53:53;;;;;;;18.35;10.98;;;;;;;3.72;100.00;99950.19;5053497;28;20832;-54
2021/12/27 09:56:24;;;;;;;16.55;9.52;;;;;;;3.81;100.00;99952.31;5051049;28;20049;-55
2021/12/27 09:59:00;;;;;;;18.50;10.23;;;;;;;3.84;100.00;99944.34;5018642;28;20052;-53
2021/12/27 10:01:34;;;;;;;17.00;9.65;;;;;;;3.85;100.00;99943.44;5043036;28;20045;-53
2021/12/27 10:04:04;;;;;;;16.20;10.75;;;;;;;3.88;100.00;99932.03;5053271;28;20045;-53
2021/12/27 10:06:36;;;;;;;17.50;10.33;;;;;;;3.93;100.00;99934.38;5052880;28;20437;-55
2021/12/27 10:09:07;;;;;;;20.20;10.48;;;;;;;3.98;100.00;99928.06;5036990;28;20053;-54
2021/12/27 10:11:39;;;;;;;17.77;10.55;;;;;;;4.04;100.00;99932.09;5053718;28;20049;-55
2021/12/27 10:14:09;;;;;;;20.13;11.50;;;;;;;4.07;100.00;99934.53;5053559;28;20103;-53
2021/12/27 10:16:39;;;;;;;18.38;10.20;;;;;;;4.10;100.00;99931.75;5053190;28;20139;-53
2021/12/27 10:19:10;;;;;;;18.63;11.05;;;;;;;4.18;100.00;99934.78;5050533;28;20111;-52
2021/12/27 10:21:41;;;;;;;20.92;10.38;;;;;;;4.21;100.00;99932.03;5051711;28;20076;-53
2021/12/27 10:24:14;;;;;;;19.98;10.65;;;;;;;4.28;100.00;99932.56;5053415;28;20053;-53
2021/12/27 10:26:46;;;;;;;16.63;10.27;;;;;;;4.37;100.00;99939.84;5051107;28;20072;-53
2021/12/27 10:29:16;;;;;;;16.88;9.63;;;;;;;4.53;100.00;99926.84;5051076;28;20419;-54
2021/12/27 10:32:05;;;;;;;17.90;9.67;;;;;;;4.52;100.00;99921.72;5053776;28;20045;-53
2021/12/27 10:34:36;;;;;;;16.42;8.98;;;;;;;4.61;100.00;99920.38;5053401;28;20037;-54
2021/12/27 10:37:08;;;;;;;15.25;8.80;;;;;;;4.64;100.00;99917.63;5053389;28;20369;-53
2021/12/27 10:39:55;;;;;;;16.75;9.35;;;;;;;4.61;100.00;99920.38;5053815;28;20504;-53
2021/12/27 10:42:28;;;;;;;16.05;9.75;;;;;;;4.63;100.00;99906.34;5053427;28;20056;-53
2021/12/27 10:44:59;;;;;;;15.63;8.95;;;;;;;4.74;100.00;99910.97;5053295;28;20514;-50
2021/12/27 10:47:46;;;;;;;16.33;9.68;;;;;;;4.74;100.00;99908.38;5052920;28;20412;-53
2021/12/27 10:50:23;;;;;;;16.73;9.73;;;;;;;4.80;100.00;99900.22;5053012;28;20048;-53
2021/12/27 10:53:02;;;;;;;17.35;9.35;;;;;;;4.90;100.00;99910.97;5051837;28;20072;-51
2021/12/27 10:55:39;;;;;;;18.48;8.98;;;;;;;5.05;100.00;99904.03;5053884;28;20358;-52
2021/12/27 10:58:19;;;;;;;16.13;9.43;;;;;;;5.05;100.00;99901.44;5052888;28;20044;-53
2021/12/27 11:00:55;;;;;;;16.27;9.50;;;;;;;5.05;100.00;99897.06;5051294;28;20095;-51
2021/12/27 11:03:34;;;;;;;15.07;8.77;;;;;;;5.09;100.00;99897.72;5053111;28;20845;-53
2021/12/27 11:06:11;;;;;;;17.48;9.00;;;;;;;5.20;100.00;99886.69;5050006;28;20045;-53
2021/12/27 11:08:46;;;;;;;14.40;8.48;;;;;;;5.23;100.00;99879.50;5047923;28;20041;-53
2021/12/27 11:11:22;;;;;;;16.02;9.15;;;;;;;5.21;100.00;99875.34;5051663;28;20068;-53
2021/12/27 11:13:58;;;;;;;15.63;8.93;;;;;;;5.33;100.00;99865.94;5052635;28;20553;-54
2021/12/27 11:16:28;;;;;;;14.23;8.43;;;;;;;5.23;100.00;99848.22;5052870;28;20106;-54
2021/12/27 11:18:57;;;;;;;14.00;8.32;;;;;;;5.33;100.00;99850.28;5051652;28;20056;-54
2021/12/27 11:21:32;;;;;;;13.70;7.85;;;;;;;5.35;100.00;99841.44;5052145;28;20049;-54
2021/12/27 11:24:02;;;;;;;14.18;8.90;;;;;;;5.37;100.00;99851.78;5050418;28;20053;-52
2021/12/27 11:26:32;;;;;;;14.85;8.55;;;;;;;5.47;100.00;99859.91;5049475;28;20530;-51
2021/12/27 11:29:12;;;;;;;14.63;8.35;;;;;;;5.52;100.00;99860.47;5052009;28;20500;-52